De Westereen, Netherlands
Current Conditions -  °F | °C
As of 6:25 AM on Thursday 23 Oct 2014 (Local Time) from EHLW Reporting Station
Drizzle Drizzle  
Wind Chill: 52°   Ceiling: 10000
Heat Index: 52°   Visibility: 3mi
Dew Point: 52°   Wind: 7mph
Humidity: 100%   Direction: 200°SSW
Pressure: 30.09"   Gusts: NA
Location:  53.26°N, 6.04°E
Report Text: EHLW 230425Z AUTO 20006KT 5000 -DZ SCT039 SCT087 OVC100 11/11 Q1019 REDZ WHT
Loading
Personal Weather Stations






























Interactive Weather Map
Tropical Storm Tracking
New forecast layout! Learn more

10-Day Weather Forecast

Advertisements
Track Severe Weather on mobile